sensor_id;sensor_type;location;lat;lon;timestamp;temperature;humidity
20370;DHT22;10344;47.592;9.600;2023-08-06T00:01:30;15.50;99.90
20370;DHT22;10344;47.592;9.600;2023-08-06T00:03:56;15.50;99.90
20370;DHT22;10344;47.592;9.600;2023-08-06T00:06:21;15.50;99.90
20370;DHT22;10344;47.592;9.600;2023-08-06T00:08:49;15.60;99.90
20370;DHT22;10344;47.592;9.600;2023-08-06T00:11:18;15.60;99.90
20370;DHT22;10344;47.592;9.600;2023-08-06T00:13:46;15.50;99.90
20370;DHT22;10344;47.592;9.600;2023-08-06T00:16:18;15.50;99.90
20370;DHT22;10344;47.592;9.600;2023-08-06T00:18:43;15.50;99.90
20370;DHT22;10344;47.592;9.600;2023-08-06T00:21:09;15.50;99.90
20370;DHT22;10344;47.592;9.600;2023-08-06T00:23:40;15.40;99.90
20370;DHT22;10344;47.592;9.600;2023-08-06T00:26:06;15.40;99.90
20370;DHT22;10344;47.592;9.600;2023-08-06T00:28:40;15.40;99.90
20370;DHT22;10344;47.592;9.600;2023-08-06T00:31:06;15.40;99.90
20370;DHT22;10344;47.592;9.600;2023-08-06T00:33:36;15.50;99.90
20370;DHT22;10344;47.592;9.600;2023-08-06T00:36:02;15.50;99.90
20370;DHT22;10344;47.592;9.600;2023-08-06T00:38:30;15.50;99.90
20370;DHT22;10344;47.592;9.600;2023-08-06T00:40:56;15.50;99.90
20370;DHT22;10344;47.592;9.600;2023-08-06T00:43:22;15.50;99.90
20370;DHT22;10344;47.592;9.600;2023-08-06T00:45:50;15.50;99.90
20370;DHT22;10344;47.592;9.600;2023-08-06T00:48:16;15.50;99.90
20370;DHT22;10344;47.592;9.600;2023-08-06T00:50:45;15.50;99.90
20370;DHT22;10344;47.592;9.600;2023-08-06T00:53:10;15.50;99.90
20370;DHT22;10344;47.592;9.600;2023-08-06T00:55:36;15.60;99.90
20370;DHT22;10344;47.592;9.600;2023-08-06T00:58:05;15.60;99.90
20370;DHT22;10344;47.592;9.600;2023-08-06T01:00:31;15.70;99.90
20370;DHT22;10344;47.592;9.600;2023-08-06T01:02:57;15.70;99.90
20370;DHT22;10344;47.592;9.600;2023-08-06T01:05:23;15.80;99.90
20370;DHT22;10344;47.592;9.600;2023-08-06T01:11:17;15.60;99.90
20370;DHT22;10344;47.592;9.600;2023-08-06T01:14:03;15.50;99.90
20370;DHT22;10344;47.592;9.600;2023-08-06T01:16:30;15.40;99.90
20370;DHT22;10344;47.592;9.600;2023-08-06T01:18:58;15.40;99.90
20370;DHT22;10344;47.592;9.600;2023-08-06T01:21:23;15.30;99.90
20370;DHT22;10344;47.592;9.600;2023-08-06T01:23:49;15.20;99.90
20370;DHT22;10344;47.592;9.600;2023-08-06T01:31:39;15.00;99.90
20370;DHT22;10344;47.592;9.600;2023-08-06T01:34:10;14.90;99.90
20370;DHT22;10344;47.592;9.600;2023-08-06T01:36:39;14.70;99.90
20370;DHT22;10344;47.592;9.600;2023-08-06T01:39:05;14.70;99.90
20370;DHT22;10344;47.592;9.600;2023-08-06T01:41:31;14.70;99.90
20370;DHT22;10344;47.592;9.600;2023-08-06T01:43:58;14.60;99.90
20370;DHT22;10344;47.592;9.600;2023-08-06T01:46:24;14.60;99.90
20370;DHT22;10344;47.592;9.600;2023-08-06T01:48:50;14.50;99.90
20370;DHT22;10344;47.592;9.600;2023-08-06T01:51:15;14.50;99.90
20370;DHT22;10344;47.592;9.600;2023-08-06T01:53:43;14.50;99.90
20370;DHT22;10344;47.592;9.600;2023-08-06T01:56:09;14.50;99.90
20370;DHT22;10344;47.592;9.600;2023-08-06T01:58:34;14.40;99.90
20370;DHT22;10344;47.592;9.600;2023-08-06T02:01:03;14.40;99.90
20370;DHT22;10344;47.592;9.600;2023-08-06T02:03:29;14.40;99.90
20370;DHT22;10344;47.592;9.600;2023-08-06T02:05:57;14.60;99.90
20370;DHT22;10344;47.592;9.600;2023-08-06T02:08:25;14.70;99.90
20370;DHT22;10344;47.592;9.600;2023-08-06T02:10:56;14.70;99.90
20370;DHT22;10344;47.592;9.600;2023-08-06T02:13:26;14.90;99.90
20370;DHT22;10344;47.592;9.600;2023-08-06T02:16:01;14.90;99.90
20370;DHT22;10344;47.592;9.600;2023-08-06T02:18:29;14.90;99.90
20370;DHT22;10344;47.592;9.600;2023-08-06T02:20:55;14.90;99.90
20370;DHT22;10344;47.592;9.600;2023-08-06T02:23:22;15.00;99.90
20370;DHT22;10344;47.592;9.600;2023-08-06T02:25:48;15.10;99.90
20370;DHT22;10344;47.592;9.600;2023-08-06T02:28:14;15.20;99.90
20370;DHT22;10344;47.592;9.600;2023-08-06T02:30:39;15.20;99.90
20370;DHT22;10344;47.592;9.600;2023-08-06T02:33:06;15.40;99.90
20370;DHT22;10344;47.592;9.600;2023-08-06T02:35:37;15.40;99.90
20370;DHT22;10344;47.592;9.600;2023-08-06T02:38:03;15.50;99.90
20370;DHT22;10344;47.592;9.600;2023-08-06T02:40:28;15.50;99.90
20370;DHT22;10344;47.592;9.600;2023-08-06T02:42:56;15.60;99.90
20370;DHT22;10344;47.592;9.600;2023-08-06T02:45:23;15.50;99.90
20370;DHT22;10344;47.592;9.600;2023-08-06T02:47:48;15.50;99.90
20370;DHT22;10344;47.592;9.600;2023-08-06T02:50:14;15.50;99.90
20370;DHT22;10344;47.592;9.600;2023-08-06T02:52:39;15.60;99.90
20370;DHT22;10344;47.592;9.600;2023-08-06T02:55:10;15.70;99.90
20370;DHT22;10344;47.592;9.600;2023-08-06T02:57:36;15.70;99.90
20370;DHT22;10344;47.592;9.600;2023-08-06T03:00:02;15.80;99.90
20370;DHT22;10344;47.592;9.600;2023-08-06T03:02:32;15.80;99.90
20370;DHT22;10344;47.592;9.600;2023-08-06T03:04:58;15.90;99.90
20370;DHT22;10344;47.592;9.600;2023-08-06T03:07:26;15.90;99.90
20370;DHT22;10344;47.592;9.600;2023-08-06T03:09:52;16.00;99.90
20370;DHT22;10344;47.592;9.600;2023-08-06T03:12:18;15.90;99.90
20370;DHT22;10344;47.592;9.600;2023-08-06T03:14:46;15.80;99.90
20370;DHT22;10344;47.592;9.600;2023-08-06T03:17:14;15.80;99.90
20370;DHT22;10344;47.592;9.600;2023-08-06T03:19:40;15.70;99.90
20370;DHT22;10344;47.592;9.600;2023-08-06T03:22:06;15.70;99.90
20370;DHT22;10344;47.592;9.600;2023-08-06T03:24:31;15.80;99.90
20370;DHT22;10344;47.592;9.600;2023-08-06T03:26:57;15.80;99.90
20370;DHT22;10344;47.592;9.600;2023-08-06T03:29:23;15.90;99.90
20370;DHT22;10344;47.592;9.600;2023-08-06T03:31:48;15.80;99.90
20370;DHT22;10344;47.592;9.600;2023-08-06T03:34:14;15.90;99.90
20370;DHT22;10344;47.592;9.600;2023-08-06T03:36:39;15.90;99.90
20370;DHT22;10344;47.592;9.600;2023-08-06T03:39:05;16.00;99.90
20370;DHT22;10344;47.592;9.600;2023-08-06T03:41:33;16.00;99.90
20370;DHT22;10344;47.592;9.600;2023-08-06T03:44:02;16.00;99.90
20370;DHT22;10344;47.592;9.600;2023-08-06T03:46:28;16.00;99.90
20370;DHT22;10344;47.592;9.600;2023-08-06T03:48:55;16.00;99.90
20370;DHT22;10344;47.592;9.600;2023-08-06T03:51:22;16.00;99.90
20370;DHT22;10344;47.592;9.600;2023-08-06T03:53:50;16.00;99.90
20370;DHT22;10344;47.592;9.600;2023-08-06T03:56:15;16.10;99.90
20370;DHT22;10344;47.592;9.600;2023-08-06T03:58:43;16.10;99.90
20370;DHT22;10344;47.592;9.600;2023-08-06T04:01:09;16.10;99.90
20370;DHT22;10344;47.592;9.600;2023-08-06T04:03:35;16.10;99.90
20370;DHT22;10344;47.592;9.600;2023-08-06T04:06:02;16.10;99.90
20370;DHT22;10344;47.592;9.600;2023-08-06T04:08:28;16.20;99.90
20370;DHT22;10344;47.592;9.600;2023-08-06T04:10:54;16.20;99.90
20370;DHT22;10344;47.592;9.600;2023-08-06T04:13:20;16.30;99.90
20370;DHT22;10344;47.592;9.600;2023-08-06T04:15:48;16.30;99.90
20370;DHT22;10344;47.592;9.600;2023-08-06T04:18:19;16.40;99.90
20370;DHT22;10344;47.592;9.600;2023-08-06T04:20:45;16.30;99.90
20370;DHT22;10344;47.592;9.600;2023-08-06T04:23:12;16.40;99.90
20370;DHT22;10344;47.592;9.600;2023-08-06T04:25:43;16.40;99.90
20370;DHT22;10344;47.592;9.600;2023-08-06T04:28:09;16.40;99.90
20370;DHT22;10344;47.592;9.600;2023-08-06T04:30:37;16.40;99.90
20370;DHT22;10344;47.592;9.600;2023-08-06T04:33:03;16.40;99.90
20370;DHT22;10344;47.592;9.600;2023-08-06T04:35:31;16.30;99.90
20370;DHT22;10344;47.592;9.600;2023-08-06T04:38:03;16.40;99.90
20370;DHT22;10344;47.592;9.600;2023-08-06T04:40:28;16.40;99.90
20370;DHT22;10344;47.592;9.600;2023-08-06T04:42:54;16.50;99.90
20370;DHT22;10344;47.592;9.600;2023-08-06T04:45:22;16.50;99.90
20370;DHT22;10344;47.592;9.600;2023-08-06T04:47:49;16.50;99.90
20370;DHT22;10344;47.592;9.600;2023-08-06T04:50:18;16.60;99.90
20370;DHT22;10344;47.592;9.600;2023-08-06T04:52:43;16.60;99.90
20370;DHT22;10344;47.592;9.600;2023-08-06T04:55:11;16.70;99.90
20370;DHT22;10344;47.592;9.600;2023-08-06T04:57:37;16.60;99.90
20370;DHT22;10344;47.592;9.600;2023-08-06T05:00:05;16.50;99.90
20370;DHT22;10344;47.592;9.600;2023-08-06T05:02:33;16.50;99.90
20370;DHT22;10344;47.592;9.600;2023-08-06T05:05:05;16.60;99.90
20370;DHT22;10344;47.592;9.600;2023-08-06T05:07:33;16.60;99.90
20370;DHT22;10344;47.592;9.600;2023-08-06T05:10:02;16.60;99.90
20370;DHT22;10344;47.592;9.600;2023-08-06T05:12:29;16.50;99.90
20370;DHT22;10344;47.592;9.600;2023-08-06T05:14:55;16.50;99.90
20370;DHT22;10344;47.592;9.600;2023-08-06T05:17:21;16.60;99.90
20370;DHT22;10344;47.592;9.600;2023-08-06T05:19:50;16.60;99.90
20370;DHT22;10344;47.592;9.600;2023-08-06T05:22:16;16.60;99.90
20370;DHT22;10344;47.592;9.600;2023-08-06T05:24:43;16.60;99.90
20370;DHT22;10344;47.592;9.600;2023-08-06T05:27:09;16.50;99.90
20370;DHT22;10344;47.592;9.600;2023-08-06T05:29:37;16.50;99.90
20370;DHT22;10344;47.592;9.600;2023-08-06T05:32:06;16.50;99.90
20370;DHT22;10344;47.592;9.600;2023-08-06T05:34:37;16.30;99.90
20370;DHT22;10344;47.592;9.600;2023-08-06T05:37:05;16.10;99.90
20370;DHT22;10344;47.592;9.600;2023-08-06T05:39:31;15.90;99.90
20370;DHT22;10344;47.592;9.600;2023-08-06T05:42:01;15.70;99.90
20370;DHT22;10344;47.592;9.600;2023-08-06T05:44:29;15.50;99.90
20370;DHT22;10344;47.592;9.600;2023-08-06T05:46:57;15.30;99.90
20370;DHT22;10344;47.592;9.600;2023-08-06T05:49:23;15.10;99.90
20370;DHT22;10344;47.592;9.600;2023-08-06T05:51:48;15.00;99.90
20370;DHT22;10344;47.592;9.600;2023-08-06T05:54:14;14.90;99.90
20370;DHT22;10344;47.592;9.600;2023-08-06T05:56:39;14.80;99.90
20370;DHT22;10344;47.592;9.600;2023-08-06T05:59:05;14.80;99.90
20370;DHT22;10344;47.592;9.600;2023-08-06T06:01:34;14.80;99.90
20370;DHT22;10344;47.592;9.600;2023-08-06T06:04:02;14.80;99.90
20370;DHT22;10344;47.592;9.600;2023-08-06T06:06:28;14.80;99.90
20370;DHT22;10344;47.592;9.600;2023-08-06T06:08:54;14.80;99.90
20370;DHT22;10344;47.592;9.600;2023-08-06T06:11:22;14.70;99.90
20370;DHT22;10344;47.592;9.600;2023-08-06T06:13:54;14.80;99.90
20370;DHT22;10344;47.592;9.600;2023-08-06T06:16:19;14.90;99.90
20370;DHT22;10344;47.592;9.600;2023-08-06T06:18:45;14.90;99.90
20370;DHT22;10344;47.592;9.600;2023-08-06T06:21:18;14.90;99.90
20370;DHT22;10344;47.592;9.600;2023-08-06T06:23:44;14.90;99.90
20370;DHT22;10344;47.592;9.600;2023-08-06T06:26:10;14.80;99.90
20370;DHT22;10344;47.592;9.600;2023-08-06T06:28:40;14.80;99.90
20370;DHT22;10344;47.592;9.600;2023-08-06T06:31:06;14.80;99.90
20370;DHT22;10344;47.592;9.600;2023-08-06T06:33:37;14.80;99.90
20370;DHT22;10344;47.592;9.600;2023-08-06T06:36:05;14.90;99.90
20370;DHT22;10344;47.592;9.600;2023-08-06T06:38:33;14.90;99.90
20370;DHT22;10344;47.592;9.600;2023-08-06T06:41:01;15.00;99.90
20370;DHT22;10344;47.592;9.600;2023-08-06T06:43:34;15.10;99.90
20370;DHT22;10344;47.592;9.600;2023-08-06T06:46:00;15.20;99.90
20370;DHT22;10344;47.592;9.600;2023-08-06T06:48:31;15.30;99.90
20370;DHT22;10344;47.592;9.600;2023-08-06T06:51:02;15.40;99.90
20370;DHT22;10344;47.592;9.600;2023-08-06T06:53:30;15.40;99.90
20370;DHT22;10344;47.592;9.600;2023-08-06T06:56:03;15.50;99.90
20370;DHT22;10344;47.592;9.600;2023-08-06T06:58:31;15.60;99.90
20370;DHT22;10344;47.592;9.600;2023-08-06T07:01:01;15.70;99.90
20370;DHT22;10344;47.592;9.600;2023-08-06T07:03:29;15.70;99.90
20370;DHT22;10344;47.592;9.600;2023-08-06T07:05:59;15.80;99.90
20370;DHT22;10344;47.592;9.600;2023-08-06T07:08:26;15.80;99.90
20370;DHT22;10344;47.592;9.600;2023-08-06T07:11:06;15.80;99.90
20370;DHT22;10344;47.592;9.600;2023-08-06T07:13:37;16.00;99.90
20370;DHT22;10344;47.592;9.600;2023-08-06T07:16:06;16.30;99.90
20370;DHT22;10344;47.592;9.600;2023-08-06T07:18:36;17.40;99.90
20370;DHT22;10344;47.592;9.600;2023-08-06T07:21:04;18.10;99.90
20370;DHT22;10344;47.592;9.600;2023-08-06T07:23:30;18.80;99.90
20370;DHT22;10344;47.592;9.600;2023-08-06T07:26:01;19.00;99.90
20370;DHT22;10344;47.592;9.600;2023-08-06T07:28:26;18.90;99.90
20370;DHT22;10344;47.592;9.600;2023-08-06T07:30:52;18.90;99.90
20370;DHT22;10344;47.592;9.600;2023-08-06T07:33:22;18.90;99.90
20370;DHT22;10344;47.592;9.600;2023-08-06T07:35:48;18.70;99.90
20370;DHT22;10344;47.592;9.600;2023-08-06T07:38:18;18.30;99.90
20370;DHT22;10344;47.592;9.600;2023-08-06T07:40:45;18.20;99.90
20370;DHT22;10344;47.592;9.600;2023-08-06T07:43:10;18.10;99.90
20370;DHT22;10344;47.592;9.600;2023-08-06T07:45:39;18.30;99.90
20370;DHT22;10344;47.592;9.600;2023-08-06T07:48:07;18.40;99.90
20370;DHT22;10344;47.592;9.600;2023-08-06T07:50:35;18.30;99.90
20370;DHT22;10344;47.592;9.600;2023-08-06T07:53:01;18.20;99.90
20370;DHT22;10344;47.592;9.600;2023-08-06T07:55:27;17.80;99.90
20370;DHT22;10344;47.592;9.600;2023-08-06T07:57:54;17.60;99.90
20370;DHT22;10344;47.592;9.600;2023-08-06T08:00:26;17.50;99.90
20370;DHT22;10344;47.592;9.600;2023-08-06T08:02:52;17.30;99.90
20370;DHT22;10344;47.592;9.600;2023-08-06T08:05:29;17.20;99.90
20370;DHT22;10344;47.592;9.600;2023-08-06T08:08:00;17.00;99.90
20370;DHT22;10344;47.592;9.600;2023-08-06T08:10:26;16.90;99.90
20370;DHT22;10344;47.592;9.600;2023-08-06T08:12:52;16.80;99.90
20370;DHT22;10344;47.592;9.600;2023-08-06T08:15:21;16.80;99.90
20370;DHT22;10344;47.592;9.600;2023-08-06T08:17:49;16.70;99.90
20370;DHT22;10344;47.592;9.600;2023-08-06T08:20:23;16.60;99.90
20370;DHT22;10344;47.592;9.600;2023-08-06T08:22:49;16.70;99.90
20370;DHT22;10344;47.592;9.600;2023-08-06T08:25:21;16.70;99.90
20370;DHT22;10344;47.592;9.600;2023-08-06T08:27:46;16.60;99.90
20370;DHT22;10344;47.592;9.600;2023-08-06T08:30:18;16.50;99.90
20370;DHT22;10344;47.592;9.600;2023-08-06T08:32:44;16.30;99.90
20370;DHT22;10344;47.592;9.600;2023-08-06T08:35:10;16.10;99.90
20370;DHT22;10344;47.592;9.600;2023-08-06T08:37:39;16.00;99.90
20370;DHT22;10344;47.592;9.600;2023-08-06T08:40:08;15.90;99.90
20370;DHT22;10344;47.592;9.600;2023-08-06T08:42:38;15.80;99.90
20370;DHT22;10344;47.592;9.600;2023-08-06T08:45:13;15.70;99.90
20370;DHT22;10344;47.592;9.600;2023-08-06T08:47:43;15.50;99.90
20370;DHT22;10344;47.592;9.600;2023-08-06T08:50:10;15.50;99.90
20370;DHT22;10344;47.592;9.600;2023-08-06T08:52:43;15.50;99.90
20370;DHT22;10344;47.592;9.600;2023-08-06T08:55:12;15.40;99.90
20370;DHT22;10344;47.592;9.600;2023-08-06T08:57:39;15.50;99.90
20370;DHT22;10344;47.592;9.600;2023-08-06T09:00:07;15.50;99.90
20370;DHT22;10344;47.592;9.600;2023-08-06T09:02:33;15.50;99.90
20370;DHT22;10344;47.592;9.600;2023-08-06T09:05:11;15.40;99.90
20370;DHT22;10344;47.592;9.600;2023-08-06T09:07:48;15.30;99.90
20370;DHT22;10344;47.592;9.600;2023-08-06T09:10:20;15.20;99.90
20370;DHT22;10344;47.592;9.600;2023-08-06T09:12:57;15.10;99.90
20370;DHT22;10344;47.592;9.600;2023-08-06T09:15:26;14.90;99.90
20370;DHT22;10344;47.592;9.600;2023-08-06T09:18:00;14.90;99.90
20370;DHT22;10344;47.592;9.600;2023-08-06T09:20:34;14.80;99.90
20370;DHT22;10344;47.592;9.600;2023-08-06T09:23:10;14.80;99.90
20370;DHT22;10344;47.592;9.600;2023-08-06T09:25:41;14.80;99.90
20370;DHT22;10344;47.592;9.600;2023-08-06T09:28:07;14.90;99.90
20370;DHT22;10344;47.592;9.600;2023-08-06T09:30:36;14.90;99.90
20370;DHT22;10344;47.592;9.600;2023-08-06T09:33:08;14.90;99.90
20370;DHT22;10344;47.592;9.600;2023-08-06T09:35:38;14.90;99.90
20370;DHT22;10344;47.592;9.600;2023-08-06T09:38:11;15.00;99.90
20370;DHT22;10344;47.592;9.600;2023-08-06T09:40:38;14.90;99.90
20370;DHT22;10344;47.592;9.600;2023-08-06T09:43:04;15.00;99.90
20370;DHT22;10344;47.592;9.600;2023-08-06T09:45:35;14.90;99.90
20370;DHT22;10344;47.592;9.600;2023-08-06T09:48:08;15.00;99.90
20370;DHT22;10344;47.592;9.600;2023-08-06T09:50:39;14.90;99.90
20370;DHT22;10344;47.592;9.600;2023-08-06T09:53:07;14.90;99.90
20370;DHT22;10344;47.592;9.600;2023-08-06T09:55:45;14.90;99.90
20370;DHT22;10344;47.592;9.600;2023-08-06T09:58:11;14.90;99.90
20370;DHT22;10344;47.592;9.600;2023-08-06T10:00:37;14.90;99.90
20370;DHT22;10344;47.592;9.600;2023-08-06T10:03:04;15.00;99.90
20370;DHT22;10344;47.592;9.600;2023-08-06T10:05:33;15.00;99.90
20370;DHT22;10344;47.592;9.600;2023-08-06T10:08:00;15.00;99.90
20370;DHT22;10344;47.592;9.600;2023-08-06T10:10:28;15.10;99.90
20370;DHT22;10344;47.592;9.600;2023-08-06T10:13:04;15.20;99.90
20370;DHT22;10344;47.592;9.600;2023-08-06T10:15:32;15.40;99.90
20370;DHT22;10344;47.592;9.600;2023-08-06T10:17:59;15.50;99.90
20370;DHT22;10344;47.592;9.600;2023-08-06T10:20:26;15.40;99.90
20370;DHT22;10344;47.592;9.600;2023-08-06T10:23:05;15.40;99.90
20370;DHT22;10344;47.592;9.600;2023-08-06T10:25:40;15.40;99.90
20370;DHT22;10344;47.592;9.600;2023-08-06T10:28:09;15.40;99.90
20370;DHT22;10344;47.592;9.600;2023-08-06T10:30:48;15.30;99.90
20370;DHT22;10344;47.592;9.600;2023-08-06T10:33:14;15.30;99.90
20370;DHT22;10344;47.592;9.600;2023-08-06T10:35:46;15.40;99.90
20370;DHT22;10344;47.592;9.600;2023-08-06T10:38:19;15.40;99.90
20370;DHT22;10344;47.592;9.600;2023-08-06T10:40:49;15.50;99.90
20370;DHT22;10344;47.592;9.600;2023-08-06T10:43:43;15.60;99.90
20370;DHT22;10344;47.592;9.600;2023-08-06T10:46:21;15.70;99.90
20370;DHT22;10344;47.592;9.600;2023-08-06T10:48:47;15.70;99.90
20370;DHT22;10344;47.592;9.600;2023-08-06T10:51:18;15.70;99.90
20370;DHT22;10344;47.592;9.600;2023-08-06T10:53:50;15.70;99.90
20370;DHT22;10344;47.592;9.600;2023-08-06T10:56:17;15.80;99.90
20370;DHT22;10344;47.592;9.600;2023-08-06T10:58:44;15.70;99.90
20370;DHT22;10344;47.592;9.600;2023-08-06T11:01:13;15.70;99.90
20370;DHT22;10344;47.592;9.600;2023-08-06T11:03:49;15.80;99.90
20370;DHT22;10344;47.592;9.600;2023-08-06T11:06:24;15.90;99.90
20370;DHT22;10344;47.592;9.600;2023-08-06T11:08:53;16.00;99.90
20370;DHT22;10344;47.592;9.600;2023-08-06T11:11:20;16.00;99.90
20370;DHT22;10344;47.592;9.600;2023-08-06T11:13:50;15.90;99.90
20370;DHT22;10344;47.592;9.600;2023-08-06T11:16:22;15.80;99.90
20370;DHT22;10344;47.592;9.600;2023-08-06T11:18:55;15.70;99.90
20370;DHT22;10344;47.592;9.600;2023-08-06T11:21:25;15.50;99.90
20370;DHT22;10344;47.592;9.600;2023-08-06T11:23:58;15.40;99.90
20370;DHT22;10344;47.592;9.600;2023-08-06T11:26:25;15.40;99.90
20370;DHT22;10344;47.592;9.600;2023-08-06T11:28:51;15.30;99.90
20370;DHT22;10344;47.592;9.600;2023-08-06T11:31:23;15.40;99.90
20370;DHT22;10344;47.592;9.600;2023-08-06T11:33:55;15.30;99.90
20370;DHT22;10344;47.592;9.600;2023-08-06T11:36:36;15.40;99.90
20370;DHT22;10344;47.592;9.600;2023-08-06T11:39:14;15.50;99.90
20370;DHT22;10344;47.592;9.600;2023-08-06T11:41:43;15.60;99.90
20370;DHT22;10344;47.592;9.600;2023-08-06T11:44:11;15.70;99.90
20370;DHT22;10344;47.592;9.600;2023-08-06T11:47:11;15.80;99.90
20370;DHT22;10344;47.592;9.600;2023-08-06T11:49:44;15.80;99.90
20370;DHT22;10344;47.592;9.600;2023-08-06T11:54:39;15.80;99.90
20370;DHT22;10344;47.592;9.600;2023-08-06T11:57:12;15.80;99.90
20370;DHT22;10344;47.592;9.600;2023-08-06T11:59:39;16.00;99.90
20370;DHT22;10344;47.592;9.600;2023-08-06T12:02:09;16.10;99.90
20370;DHT22;10344;47.592;9.600;2023-08-06T12:05:01;16.20;99.90
20370;DHT22;10344;47.592;9.600;2023-08-06T12:07:38;16.10;99.90
20370;DHT22;10344;47.592;9.600;2023-08-06T12:10:10;16.20;99.90
20370;DHT22;10344;47.592;9.600;2023-08-06T12:12:36;16.30;99.90
20370;DHT22;10344;47.592;9.600;2023-08-06T12:15:09;16.30;99.90
20370;DHT22;10344;47.592;9.600;2023-08-06T12:17:35;16.30;99.90
20370;DHT22;10344;47.592;9.600;2023-08-06T12:20:09;16.30;99.90
20370;DHT22;10344;47.592;9.600;2023-08-06T12:22:36;16.30;99.90
20370;DHT22;10344;47.592;9.600;2023-08-06T12:25:09;16.30;99.90
20370;DHT22;10344;47.592;9.600;2023-08-06T12:27:46;16.40;99.90
20370;DHT22;10344;47.592;9.600;2023-08-06T12:30:12;16.50;99.90
20370;DHT22;10344;47.592;9.600;2023-08-06T12:32:39;16.50;99.90
20370;DHT22;10344;47.592;9.600;2023-08-06T12:35:08;16.60;99.90
20370;DHT22;10344;47.592;9.600;2023-08-06T12:37:34;16.60;99.90
20370;DHT22;10344;47.592;9.600;2023-08-06T12:40:00;16.80;99.90
20370;DHT22;10344;47.592;9.600;2023-08-06T12:42:26;16.90;99.90
20370;DHT22;10344;47.592;9.600;2023-08-06T12:44:58;16.80;99.90
20370;DHT22;10344;47.592;9.600;2023-08-06T12:47:23;16.80;99.90
20370;DHT22;10344;47.592;9.600;2023-08-06T12:49:57;16.60;99.90
20370;DHT22;10344;47.592;9.600;2023-08-06T12:52:22;16.60;99.90
20370;DHT22;10344;47.592;9.600;2023-08-06T12:54:51;16.50;99.90
20370;DHT22;10344;47.592;9.600;2023-08-06T12:57:20;16.50;99.90
20370;DHT22;10344;47.592;9.600;2023-08-06T12:59:45;16.50;99.90
20370;DHT22;10344;47.592;9.600;2023-08-06T13:02:11;16.40;99.90
20370;DHT22;10344;47.592;9.600;2023-08-06T13:04:36;16.30;99.90
20370;DHT22;10344;47.592;9.600;2023-08-06T13:07:02;16.30;99.90
20370;DHT22;10344;47.592;9.600;2023-08-06T13:09:31;16.30;99.90
20370;DHT22;10344;47.592;9.600;2023-08-06T13:11:57;16.20;99.90
20370;DHT22;10344;47.592;9.600;2023-08-06T13:14:23;16.30;99.90
20370;DHT22;10344;47.592;9.600;2023-08-06T13:16:48;16.30;99.90
20370;DHT22;10344;47.592;9.600;2023-08-06T13:19:21;16.40;99.90
20370;DHT22;10344;47.592;9.600;2023-08-06T13:24:15;16.40;99.90
20370;DHT22;10344;47.592;9.600;2023-08-06T13:26:46;16.30;99.90
20370;DHT22;10344;47.592;9.600;2023-08-06T13:29:14;16.40;99.90
20370;DHT22;10344;47.592;9.600;2023-08-06T13:31:46;16.30;99.90
20370;DHT22;10344;47.592;9.600;2023-08-06T13:34:12;16.30;99.90
20370;DHT22;10344;47.592;9.600;2023-08-06T13:36:37;16.20;99.90
20370;DHT22;10344;47.592;9.600;2023-08-06T13:39:10;16.20;99.90
20370;DHT22;10344;47.592;9.600;2023-08-06T13:41:37;16.20;99.90
20370;DHT22;10344;47.592;9.600;2023-08-06T13:44:07;16.30;99.90
20370;DHT22;10344;47.592;9.600;2023-08-06T13:46:38;16.30;99.90
20370;DHT22;10344;47.592;9.600;2023-08-06T13:49:07;16.40;99.90
20370;DHT22;10344;47.592;9.600;2023-08-06T13:51:33;16.50;99.90
20370;DHT22;10344;47.592;9.600;2023-08-06T13:54:01;16.50;99.90
20370;DHT22;10344;47.592;9.600;2023-08-06T13:56:35;16.60;99.90
20370;DHT22;10344;47.592;9.600;2023-08-06T13:59:02;16.60;99.90
20370;DHT22;10344;47.592;9.600;2023-08-06T14:01:38;16.60;99.90
20370;DHT22;10344;47.592;9.600;2023-08-06T14:04:13;16.60;99.90
20370;DHT22;10344;47.592;9.600;2023-08-06T14:06:38;16.60;99.90
20370;DHT22;10344;47.592;9.600;2023-08-06T14:09:13;16.60;99.90
20370;DHT22;10344;47.592;9.600;2023-08-06T14:11:46;16.60;99.90
20370;DHT22;10344;47.592;9.600;2023-08-06T14:14:14;16.60;99.90
20370;DHT22;10344;47.592;9.600;2023-08-06T14:16:45;16.60;99.90
20370;DHT22;10344;47.592;9.600;2023-08-06T14:19:13;16.60;99.90
20370;DHT22;10344;47.592;9.600;2023-08-06T14:21:39;16.70;99.90
20370;DHT22;10344;47.592;9.600;2023-08-06T14:24:13;16.80;99.90
20370;DHT22;10344;47.592;9.600;2023-08-06T14:26:39;16.80;99.90
20370;DHT22;10344;47.592;9.600;2023-08-06T14:29:07;16.90;99.90
20370;DHT22;10344;47.592;9.600;2023-08-06T14:31:35;16.90;99.90
20370;DHT22;10344;47.592;9.600;2023-08-06T14:34:09;16.80;99.90
20370;DHT22;10344;47.592;9.600;2023-08-06T14:36:37;16.80;99.90
20370;DHT22;10344;47.592;9.600;2023-08-06T14:39:06;16.70;99.90
20370;DHT22;10344;47.592;9.600;2023-08-06T14:41:32;16.50;99.90
20370;DHT22;10344;47.592;9.600;2023-08-06T14:43:58;16.50;99.90
20370;DHT22;10344;47.592;9.600;2023-08-06T14:46:23;16.50;99.90
20370;DHT22;10344;47.592;9.600;2023-08-06T14:48:49;16.50;99.90
20370;DHT22;10344;47.592;9.600;2023-08-06T14:51:19;16.60;99.90
20370;DHT22;10344;47.592;9.600;2023-08-06T14:53:45;16.50;99.90
20370;DHT22;10344;47.592;9.600;2023-08-06T14:56:11;16.50;99.90
20370;DHT22;10344;47.592;9.600;2023-08-06T14:58:45;16.40;99.90
20370;DHT22;10344;47.592;9.600;2023-08-06T15:01:13;16.50;99.90
20370;DHT22;10344;47.592;9.600;2023-08-06T15:03:44;16.70;99.90
20370;DHT22;10344;47.592;9.600;2023-08-06T15:06:09;16.90;99.90
20370;DHT22;10344;47.592;9.600;2023-08-06T15:08:38;17.20;99.90
20370;DHT22;10344;47.592;9.600;2023-08-06T15:11:06;17.80;99.90
20370;DHT22;10344;47.592;9.600;2023-08-06T15:13:34;18.20;99.90
20370;DHT22;10344;47.592;9.600;2023-08-06T15:16:00;18.60;99.90
20370;DHT22;10344;47.592;9.600;2023-08-06T15:18:25;19.00;99.90
20370;DHT22;10344;47.592;9.600;2023-08-06T15:20:58;19.30;99.90
20370;DHT22;10344;47.592;9.600;2023-08-06T15:23:32;19.50;99.90
20370;DHT22;10344;47.592;9.600;2023-08-06T15:25:59;19.50;99.90
20370;DHT22;10344;47.592;9.600;2023-08-06T15:28:25;19.50;99.90
20370;DHT22;10344;47.592;9.600;2023-08-06T15:31:00;19.30;99.90
20370;DHT22;10344;47.592;9.600;2023-08-06T15:33:38;19.10;99.90
20370;DHT22;10344;47.592;9.600;2023-08-06T15:36:07;19.10;99.90
20370;DHT22;10344;47.592;9.600;2023-08-06T15:38:33;19.00;99.90
20370;DHT22;10344;47.592;9.600;2023-08-06T15:41:01;19.20;99.90
20370;DHT22;10344;47.592;9.600;2023-08-06T15:43:32;19.50;99.90
20370;DHT22;10344;47.592;9.600;2023-08-06T15:45:59;19.60;99.90
20370;DHT22;10344;47.592;9.600;2023-08-06T15:48:27;19.60;99.90
20370;DHT22;10344;47.592;9.600;2023-08-06T15:50:58;19.50;99.90
20370;DHT22;10344;47.592;9.600;2023-08-06T15:53:24;19.30;99.90